sensor_id;sensor_type;location;lat;lon;timestamp;pressure;altitude;pressure_sealevel;temperature;humidity
45327;BME280;31062;49.678;24.560;2022-09-09T00:04:13;97932.28;;;15.77;48.59
45327;BME280;31062;49.678;24.560;2022-09-09T00:10:33;98065.75;;;16.70;48.69
45327;BME280;31062;49.678;24.560;2022-09-09T00:13:30;98076.75;;;16.66;48.73
45327;BME280;31062;49.678;24.560;2022-09-09T00:16:22;98114.66;;;16.69;48.66
45327;BME280;31062;49.678;24.560;2022-09-09T00:19:21;98079.00;;;16.70;48.70
45327;BME280;31062;49.678;24.560;2022-09-09T00:22:16;98078.19;;;16.67;48.75
45327;BME280;31062;49.678;24.560;2022-09-09T00:25:14;98045.81;;;16.37;49.92
45327;BME280;31062;49.678;24.560;2022-09-09T00:28:02;98115.19;;;16.66;49.84
45327;BME280;31062;49.678;24.560;2022-09-09T00:30:49;98103.28;;;16.65;51.18
45327;BME280;31062;49.678;24.560;2022-09-09T00:33:34;98103.53;;;16.58;51.23
45327;BME280;31062;49.678;24.560;2022-09-09T00:36:24;98090.38;;;16.47;51.59
45327;BME280;31062;49.678;24.560;2022-09-09T00:39:37;98099.28;;;16.43;51.46
45327;BME280;31062;49.678;24.560;2022-09-09T00:48:17;97929.06;;;15.05;52.28
45327;BME280;31062;49.678;24.560;2022-09-09T00:51:15;98068.47;;;16.02;52.59
45327;BME280;31062;49.678;24.560;2022-09-09T00:54:18;98076.66;;;16.12;52.58
45327;BME280;31062;49.678;24.560;2022-09-09T01:00:25;98049.59;;;15.89;53.41
45327;BME280;31062;49.678;24.560;2022-09-09T01:03:22;98093.44;;;16.12;53.04
45327;BME280;31062;49.678;24.560;2022-09-09T01:06:26;97819.22;;;14.24;52.96
45327;BME280;31062;49.678;24.560;2022-09-09T01:09:27;98073.53;;;16.06;53.04
45327;BME280;31062;49.678;24.560;2022-09-09T01:15:25;97935.16;;;15.01;52.78
45327;BME280;31062;49.678;24.560;2022-09-09T01:18:13;97915.03;;;14.91;52.74
45327;BME280;31062;49.678;24.560;2022-09-09T01:28:22;97931.78;;;14.91;53.17
45327;BME280;31062;49.678;24.560;2022-09-09T01:31:18;97932.31;;;14.88;53.43
45327;BME280;31062;49.678;24.560;2022-09-09T01:34:11;98076.34;;;15.80;53.64
45327;BME280;31062;49.678;24.560;2022-09-09T01:37:07;97999.69;;;15.33;53.02
45327;BME280;31062;49.678;24.560;2022-09-09T01:39:54;98069.44;;;15.81;53.31
45327;BME280;31062;49.678;24.560;2022-09-09T01:42:40;98058.13;;;15.79;53.42
45327;BME280;31062;49.678;24.560;2022-09-09T01:45:26;98055.66;;;15.85;53.43
45327;BME280;31062;49.678;24.560;2022-09-09T01:48:11;97892.94;;;14.70;53.25
45327;BME280;31062;49.678;24.560;2022-09-09T01:51:03;98001.59;;;15.42;53.78
45327;BME280;31062;49.678;24.560;2022-09-09T01:53:49;98051.84;;;15.79;54.11
45327;BME280;31062;49.678;24.560;2022-09-09T01:57:06;98054.94;;;15.85;54.11
45327;BME280;31062;49.678;24.560;2022-09-09T02:00:08;98086.31;;;15.83;54.29
45327;BME280;31062;49.678;24.560;2022-09-09T02:03:00;98065.91;;;15.81;54.22
45327;BME280;31062;49.678;24.560;2022-09-09T02:06:33;98079.16;;;15.80;53.71
45327;BME280;31062;49.678;24.560;2022-09-09T02:09:41;98077.59;;;15.77;53.87
45327;BME280;31062;49.678;24.560;2022-09-09T02:12:30;98057.53;;;15.81;53.78
45327;BME280;31062;49.678;24.560;2022-09-09T02:15:52;97892.59;;;14.64;53.71
45327;BME280;31062;49.678;24.560;2022-09-09T02:19:00;97902.78;;;14.71;53.70
45327;BME280;31062;49.678;24.560;2022-09-09T02:22:03;98046.69;;;15.62;53.06
45327;BME280;31062;49.678;24.560;2022-09-09T02:24:50;97880.00;;;14.63;53.16
45327;BME280;31062;49.678;24.560;2022-09-09T02:27:45;97856.78;;;14.47;52.98
45327;BME280;31062;49.678;24.560;2022-09-09T02:30:33;97981.88;;;15.26;53.07
45327;BME280;31062;49.678;24.560;2022-09-09T02:33:24;98068.88;;;15.71;53.44
45327;BME280;31062;49.678;24.560;2022-09-09T02:36:12;98053.91;;;15.78;52.70
45327;BME280;31062;49.678;24.560;2022-09-09T02:39:04;97853.34;;;14.48;53.17
45327;BME280;31062;49.678;24.560;2022-09-09T02:41:53;97987.84;;;15.46;53.35
45327;BME280;31062;49.678;24.560;2022-09-09T02:44:46;98017.34;;;15.74;53.78
45327;BME280;31062;49.678;24.560;2022-09-09T02:47:39;98043.06;;;15.84;53.57
45327;BME280;31062;49.678;24.560;2022-09-09T02:56:25;97891.38;;;14.67;53.16
45327;BME280;31062;49.678;24.560;2022-09-09T02:59:15;98043.13;;;15.73;53.33
45327;BME280;31062;49.678;24.560;2022-09-09T03:02:01;97853.16;;;14.32;53.69
45327;BME280;31062;49.678;24.560;2022-09-09T03:04:49;98026.41;;;15.61;53.36
45327;BME280;31062;49.678;24.560;2022-09-09T03:07:37;97875.28;;;14.54;53.54
45327;BME280;31062;49.678;24.560;2022-09-09T03:10:26;98032.22;;;15.65;53.35
45327;BME280;31062;49.678;24.560;2022-09-09T03:13:11;98004.97;;;15.52;53.60
45327;BME280;31062;49.678;24.560;2022-09-09T03:16:00;98047.41;;;15.62;53.59
45327;BME280;31062;49.678;24.560;2022-09-09T03:18:49;98030.25;;;15.68;53.65
45327;BME280;31062;49.678;24.560;2022-09-09T03:21:35;97945.53;;;15.13;53.34
45327;BME280;31062;49.678;24.560;2022-09-09T03:24:21;98023.59;;;15.61;53.60
45327;BME280;31062;49.678;24.560;2022-09-09T03:27:07;97839.72;;;14.41;53.59
45327;BME280;31062;49.678;24.560;2022-09-09T03:29:55;97883.13;;;14.69;53.06
45327;BME280;31062;49.678;24.560;2022-09-09T03:32:43;98018.25;;;15.65;53.57
45327;BME280;31062;49.678;24.560;2022-09-09T03:35:33;98020.81;;;15.61;53.48
45327;BME280;31062;49.678;24.560;2022-09-09T03:38:18;98016.59;;;15.60;53.80
45327;BME280;31062;49.678;24.560;2022-09-09T03:41:04;97981.47;;;15.32;53.83
45327;BME280;31062;49.678;24.560;2022-09-09T03:43:53;97935.16;;;15.01;53.68
45327;BME280;31062;49.678;24.560;2022-09-09T03:46:40;97839.09;;;14.30;53.29
45327;BME280;31062;49.678;24.560;2022-09-09T03:49:26;97991.09;;;15.29;53.42
45327;BME280;31062;49.678;24.560;2022-09-09T03:52:15;98009.94;;;15.54;53.58
45327;BME280;31062;49.678;24.560;2022-09-09T03:55:08;98001.56;;;15.54;53.30
45327;BME280;31062;49.678;24.560;2022-09-09T03:57:54;97985.25;;;15.50;53.36
45327;BME280;31062;49.678;24.560;2022-09-09T04:00:41;98036.03;;;15.58;53.27
45327;BME280;31062;49.678;24.560;2022-09-09T04:03:31;97840.78;;;14.36;52.99
45327;BME280;31062;49.678;24.560;2022-09-09T04:06:16;97822.38;;;14.30;52.92
45327;BME280;31062;49.678;24.560;2022-09-09T04:09:04;97962.97;;;15.25;53.28
45327;BME280;31062;49.678;24.560;2022-09-09T04:11:51;97956.84;;;15.28;52.96
45327;BME280;31062;49.678;24.560;2022-09-09T04:14:38;98004.69;;;15.60;52.93
45327;BME280;31062;49.678;24.560;2022-09-09T04:17:25;98033.44;;;15.62;52.84
45327;BME280;31062;49.678;24.560;2022-09-09T04:20:10;97873.13;;;14.78;52.90
45327;BME280;31062;49.678;24.560;2022-09-09T04:22:57;97827.44;;;14.46;52.95
45327;BME280;31062;49.678;24.560;2022-09-09T04:25:47;97969.22;;;15.37;53.34
45327;BME280;31062;49.678;24.560;2022-09-09T04:28:35;98009.63;;;15.61;53.16
45327;BME280;31062;49.678;24.560;2022-09-09T04:31:24;97843.94;;;14.42;53.10
45327;BME280;31062;49.678;24.560;2022-09-09T04:34:13;98054.13;;;15.57;53.24
45327;BME280;31062;49.678;24.560;2022-09-09T04:36:59;97887.59;;;14.74;53.32
45327;BME280;31062;49.678;24.560;2022-09-09T04:39:45;98025.19;;;15.64;53.16
45327;BME280;31062;49.678;24.560;2022-09-09T04:42:37;98014.00;;;15.39;53.55
45327;BME280;31062;49.678;24.560;2022-09-09T04:45:22;98035.34;;;15.71;53.69
45327;BME280;31062;49.678;24.560;2022-09-09T04:48:08;97837.75;;;14.43;54.06
45327;BME280;31062;49.678;24.560;2022-09-09T04:50:55;97849.19;;;14.61;54.53
45327;BME280;31062;49.678;24.560;2022-09-09T04:53:42;97953.00;;;15.22;54.63
45327;BME280;31062;49.678;24.560;2022-09-09T04:56:29;98025.38;;;15.55;54.24
45327;BME280;31062;49.678;24.560;2022-09-09T04:59:16;98036.81;;;15.72;54.18
45327;BME280;31062;49.678;24.560;2022-09-09T05:02:05;98029.97;;;15.75;53.86
45327;BME280;31062;49.678;24.560;2022-09-09T05:04:51;97967.44;;;15.43;54.00
45327;BME280;31062;49.678;24.560;2022-09-09T05:07:37;97838.03;;;14.61;54.24
45327;BME280;31062;49.678;24.560;2022-09-09T05:10:23;98005.03;;;15.79;54.52
45327;BME280;31062;49.678;24.560;2022-09-09T05:13:09;98014.53;;;15.74;54.47
45327;BME280;31062;49.678;24.560;2022-09-09T05:15:54;98009.69;;;15.75;54.01
45327;BME280;31062;49.678;24.560;2022-09-09T05:18:41;97971.28;;;15.50;54.32
45327;BME280;31062;49.678;24.560;2022-09-09T05:21:28;97997.69;;;15.72;54.43
45327;BME280;31062;49.678;24.560;2022-09-09T05:24:16;98007.81;;;15.79;54.25
45327;BME280;31062;49.678;24.560;2022-09-09T05:27:04;97850.09;;;14.77;54.55
45327;BME280;31062;49.678;24.560;2022-09-09T05:29:51;97963.28;;;15.56;54.79
45327;BME280;31062;49.678;24.560;2022-09-09T05:32:36;97993.94;;;15.68;54.88
45327;BME280;31062;49.678;24.560;2022-09-09T05:35:22;97992.41;;;15.78;55.16
45327;BME280;31062;49.678;24.560;2022-09-09T05:38:08;97999.34;;;15.77;55.40
45327;BME280;31062;49.678;24.560;2022-09-09T05:40:53;97987.53;;;15.65;55.49
45327;BME280;31062;49.678;24.560;2022-09-09T05:43:39;98005.03;;;15.79;55.65
45327;BME280;31062;49.678;24.560;2022-09-09T05:46:25;97989.63;;;15.78;55.79
45327;BME280;31062;49.678;24.560;2022-09-09T05:49:13;97966.28;;;15.60;56.24
45327;BME280;31062;49.678;24.560;2022-09-09T05:52:01;98010.34;;;15.87;56.41
45327;BME280;31062;49.678;24.560;2022-09-09T05:54:49;98008.25;;;15.87;56.41
45327;BME280;31062;49.678;24.560;2022-09-09T05:57:34;98012.41;;;15.86;56.18
45327;BME280;31062;49.678;24.560;2022-09-09T06:00:21;97836.91;;;14.66;56.70
45327;BME280;31062;49.678;24.560;2022-09-09T06:03:12;97802.13;;;14.42;56.62
45327;BME280;31062;49.678;24.560;2022-09-09T06:06:01;97837.03;;;14.68;57.52
45327;BME280;31062;49.678;24.560;2022-09-09T06:08:48;98019.03;;;15.93;58.36
45327;BME280;31062;49.678;24.560;2022-09-09T06:11:38;98005.16;;;15.81;58.72
45327;BME280;31062;49.678;24.560;2022-09-09T06:14:24;97989.72;;;15.67;58.84
45327;BME280;31062;49.678;24.560;2022-09-09T06:17:11;97993.31;;;15.69;58.96
45327;BME280;31062;49.678;24.560;2022-09-09T06:19:57;97929.72;;;15.17;59.15
45327;BME280;31062;49.678;24.560;2022-09-09T06:22:42;97863.47;;;14.67;59.69
45327;BME280;31062;49.678;24.560;2022-09-09T06:25:28;98024.31;;;15.87;59.74
45327;BME280;31062;49.678;24.560;2022-09-09T06:28:15;97809.03;;;14.41;59.46
45327;BME280;31062;49.678;24.560;2022-09-09T06:31:05;98025.75;;;15.88;59.21
45327;BME280;31062;49.678;24.560;2022-09-09T06:33:53;97920.28;;;15.10;59.06
45327;BME280;31062;49.678;24.560;2022-09-09T06:36:42;97847.03;;;14.59;59.18
45327;BME280;31062;49.678;24.560;2022-09-09T06:39:28;98057.13;;;15.86;59.46
45327;BME280;31062;49.678;24.560;2022-09-09T06:42:14;98003.22;;;15.59;59.29
45327;BME280;31062;49.678;24.560;2022-09-09T06:45:04;98019.81;;;15.68;59.37
45327;BME280;31062;49.678;24.560;2022-09-09T06:48:01;97989.50;;;15.51;59.41
45327;BME280;31062;49.678;24.560;2022-09-09T06:50:47;98011.34;;;15.66;59.74
45327;BME280;31062;49.678;24.560;2022-09-09T06:53:37;98046.19;;;15.90;59.85
45327;BME280;31062;49.678;24.560;2022-09-09T06:56:26;97941.03;;;15.07;59.99
45327;BME280;31062;49.678;24.560;2022-09-09T06:59:14;98057.34;;;15.90;60.11
45327;BME280;31062;49.678;24.560;2022-09-09T07:02:02;98051.31;;;15.82;60.07
45327;BME280;31062;49.678;24.560;2022-09-09T07:04:49;98023.72;;;15.63;60.65
45327;BME280;31062;49.678;24.560;2022-09-09T07:07:36;98013.56;;;15.56;60.90
45327;BME280;31062;49.678;24.560;2022-09-09T07:10:23;97887.97;;;14.68;60.71
45327;BME280;31062;49.678;24.560;2022-09-09T07:13:09;98036.81;;;15.72;60.95
45327;BME280;31062;49.678;24.560;2022-09-09T07:16:10;98094.25;;;16.01;60.80
45327;BME280;31062;49.678;24.560;2022-09-09T07:18:57;98035.44;;;15.73;61.27
45327;BME280;31062;49.678;24.560;2022-09-09T07:21:46;98052.53;;;15.79;61.21
45327;BME280;31062;49.678;24.560;2022-09-09T07:24:35;98087.84;;;16.12;61.37
45327;BME280;31062;49.678;24.560;2022-09-09T07:27:22;97984.00;;;15.39;61.03
45327;BME280;31062;49.678;24.560;2022-09-09T07:30:08;98091.69;;;16.18;60.74
45327;BME280;31062;49.678;24.560;2022-09-09T07:32:55;97982.13;;;15.44;61.07
45327;BME280;31062;49.678;24.560;2022-09-09T07:35:43;98073.75;;;16.10;60.91
45327;BME280;31062;49.678;24.560;2022-09-09T07:38:42;98038.81;;;15.83;61.15
45327;BME280;31062;49.678;24.560;2022-09-09T07:41:35;98041.06;;;15.87;60.77
45327;BME280;31062;49.678;24.560;2022-09-09T07:44:21;98091.16;;;16.22;60.97
45327;BME280;31062;49.678;24.560;2022-09-09T07:47:13;98103.81;;;16.23;60.90
45327;BME280;31062;49.678;24.560;2022-09-09T07:50:05;98103.94;;;16.25;60.88
45327;BME280;31062;49.678;24.560;2022-09-09T07:52:53;98091.69;;;16.18;61.32
45327;BME280;31062;49.678;24.560;2022-09-09T07:55:39;98106.94;;;16.29;61.57
45327;BME280;31062;49.678;24.560;2022-09-09T07:58:26;98110.56;;;16.31;62.22
45327;BME280;31062;49.678;24.560;2022-09-09T08:01:15;98113.25;;;16.29;62.87
45327;BME280;31062;49.678;24.560;2022-09-09T08:04:06;98098.94;;;16.23;63.92
45327;BME280;31062;49.678;24.560;2022-09-09T08:06:56;98137.59;;;16.27;64.71
45327;BME280;31062;49.678;24.560;2022-09-09T08:09:43;98086.72;;;16.17;65.19
45327;BME280;31062;49.678;24.560;2022-09-09T08:12:35;98074.78;;;16.03;65.63
45327;BME280;31062;49.678;24.560;2022-09-09T08:15:21;97935.59;;;15.09;66.14
45327;BME280;31062;49.678;24.560;2022-09-09T08:18:07;97924.59;;;15.00;66.29
45327;BME280;31062;49.678;24.560;2022-09-09T08:20:52;98094.59;;;16.20;66.58
45327;BME280;31062;49.678;24.560;2022-09-09T08:23:42;98137.59;;;16.27;67.00
45327;BME280;31062;49.678;24.560;2022-09-09T08:26:39;98109.94;;;16.19;67.72
45327;BME280;31062;49.678;24.560;2022-09-09T08:29:30;98111.66;;;16.13;67.93
45327;BME280;31062;49.678;24.560;2022-09-09T08:32:25;98106.56;;;16.09;68.34
45327;BME280;31062;49.678;24.560;2022-09-09T08:35:13;98069.31;;;15.79;68.39
45327;BME280;31062;49.678;24.560;2022-09-09T08:37:59;97969.22;;;15.11;68.73
45327;BME280;31062;49.678;24.560;2022-09-09T08:40:48;97930.13;;;14.86;68.85
45327;BME280;31062;49.678;24.560;2022-09-09T08:43:36;97936.63;;;14.91;69.34
45327;BME280;31062;49.678;24.560;2022-09-09T08:46:44;98140.75;;;16.08;69.31
45327;BME280;31062;49.678;24.560;2022-09-09T08:52:31;98124.31;;;16.14;70.08
45327;BME280;31062;49.678;24.560;2022-09-09T08:58:20;98113.44;;;16.20;70.57
45327;BME280;31062;49.678;24.560;2022-09-09T09:06:57;97979.66;;;15.36;70.09
45327;BME280;31062;49.678;24.560;2022-09-09T09:10:02;97945.53;;;15.13;70.81
45327;BME280;31062;49.678;24.560;2022-09-09T09:13:14;97922.53;;;15.00;71.21
45327;BME280;31062;49.678;24.560;2022-09-09T09:16:10;97923.31;;;14.89;71.00
45327;BME280;31062;49.678;24.560;2022-09-09T09:18:59;97949.22;;;15.03;70.75
45327;BME280;31062;49.678;24.560;2022-09-09T09:21:54;98108.16;;;16.12;70.36
45327;BME280;31062;49.678;24.560;2022-09-09T09:30:45;98077.53;;;15.89;71.49
45327;BME280;31062;49.678;24.560;2022-09-09T09:33:36;98145.44;;;16.17;72.04
45327;BME280;31062;49.678;24.560;2022-09-09T09:39:27;97951.06;;;14.99;72.97
45327;BME280;31062;49.678;24.560;2022-09-09T09:42:33;98073.88;;;15.86;73.74
45327;BME280;31062;49.678;24.560;2022-09-09T09:48:15;98124.53;;;16.18;74.24
45327;BME280;31062;49.678;24.560;2022-09-09T09:51:09;98100.56;;;16.01;74.63
45327;BME280;31062;49.678;24.560;2022-09-09T09:54:42;98137.38;;;16.23;73.99
45327;BME280;31062;49.678;24.560;2022-09-09T09:57:26;98114.56;;;16.15;74.36
45327;BME280;31062;49.678;24.560;2022-09-09T10:00:22;98142.25;;;16.22;74.50
45327;BME280;31062;49.678;24.560;2022-09-09T10:03:24;97973.66;;;15.17;74.88
45327;BME280;31062;49.678;24.560;2022-09-09T10:06:11;98116.53;;;16.12;75.11
45327;BME280;31062;49.678;24.560;2022-09-09T10:08:56;98073.47;;;15.78;75.52
45327;BME280;31062;49.678;24.560;2022-09-09T10:12:00;98123.50;;;16.25;75.65
45327;BME280;31062;49.678;24.560;2022-09-09T10:17:58;98149.50;;;16.27;76.02
45327;BME280;31062;49.678;24.560;2022-09-09T10:21:41;97979.03;;;15.13;75.81
45327;BME280;31062;49.678;24.560;2022-09-09T10:30:35;98136.16;;;16.26;76.31
45327;BME280;31062;49.678;24.560;2022-09-09T10:33:35;98147.81;;;16.22;76.32
45327;BME280;31062;49.678;24.560;2022-09-09T10:36:26;98139.84;;;16.17;76.56
45327;BME280;31062;49.678;24.560;2022-09-09T10:39:35;98108.63;;;15.95;77.19
45327;BME280;31062;49.678;24.560;2022-09-09T10:42:30;98129.19;;;15.88;77.17
45327;BME280;31062;49.678;24.560;2022-09-09T10:45:23;98117.22;;;15.99;77.07
45327;BME280;31062;49.678;24.560;2022-09-09T10:51:50;98142.16;;;16.20;77.74
45327;BME280;31062;49.678;24.560;2022-09-09T10:55:11;97985.63;;;15.05;77.74
45327;BME280;31062;49.678;24.560;2022-09-09T10:57:58;98162.00;;;16.13;78.05
45327;BME280;31062;49.678;24.560;2022-09-09T11:01:00;97998.47;;;15.10;78.18
45327;BME280;31062;49.678;24.560;2022-09-09T11:03:56;98146.56;;;16.12;78.55
45327;BME280;31062;49.678;24.560;2022-09-09T11:06:49;98156.41;;;16.13;78.83
45327;BME280;31062;49.678;24.560;2022-09-09T11:09:49;98003.66;;;15.16;78.94
45327;BME280;31062;49.678;24.560;2022-09-09T11:12:39;98096.56;;;15.79;79.41
45327;BME280;31062;49.678;24.560;2022-09-09T11:15:42;98135.78;;;16.06;79.93
45327;BME280;31062;49.678;24.560;2022-09-09T11:18:31;98145.22;;;16.13;80.17
45327;BME280;31062;49.678;24.560;2022-09-09T11:21:27;98123.66;;;16.02;80.29
45327;BME280;31062;49.678;24.560;2022-09-09T11:24:21;98144.50;;;16.12;80.84
45327;BME280;31062;49.678;24.560;2022-09-09T11:27:19;98107.34;;;15.84;80.64
45327;BME280;31062;49.678;24.560;2022-09-09T11:40:26;98003.31;;;15.10;80.96
45327;BME280;31062;49.678;24.560;2022-09-09T11:44:08;98146.69;;;16.14;81.26
45327;BME280;31062;49.678;24.560;2022-09-09T11:46:38;98124.25;;;16.00;81.10
45327;BME280;31062;49.678;24.560;2022-09-09T11:52:24;98158.81;;;16.18;81.48
45327;BME280;31062;49.678;24.560;2022-09-09T11:55:26;98173.03;;;16.36;81.62
45327;BME280;31062;49.678;24.560;2022-09-09T12:00:58;98195.63;;;16.40;81.52
45327;BME280;31062;49.678;24.560;2022-09-09T12:03:50;98128.66;;;16.17;81.64
45327;BME280;31062;49.678;24.560;2022-09-09T12:06:54;98152.94;;;16.26;81.29
45327;BME280;31062;49.678;24.560;2022-09-09T12:09:51;97997.13;;;15.37;81.34
45327;BME280;31062;49.678;24.560;2022-09-09T12:12:38;98007.91;;;15.42;80.92
45327;BME280;31062;49.678;24.560;2022-09-09T12:15:28;98103.16;;;16.11;81.16
45327;BME280;31062;49.678;24.560;2022-09-09T12:18:24;98175.81;;;16.61;81.36
45327;BME280;31062;49.678;24.560;2022-09-09T12:24:45;98138.13;;;16.37;81.79
45327;BME280;31062;49.678;24.560;2022-09-09T12:27:39;98090.31;;;16.06;82.05
45327;BME280;31062;49.678;24.560;2022-09-09T12:30:32;97996.41;;;15.36;82.26
45327;BME280;31062;49.678;24.560;2022-09-09T12:33:19;98210.97;;;16.64;82.54
45327;BME280;31062;49.678;24.560;2022-09-09T12:36:11;98180.91;;;16.65;82.44
45327;BME280;31062;49.678;24.560;2022-09-09T12:39:10;98184.53;;;16.67;82.60
45327;BME280;31062;49.678;24.560;2022-09-09T12:42:00;98188.88;;;16.70;82.74
45327;BME280;31062;49.678;24.560;2022-09-09T12:45:00;98199.28;;;16.68;82.76
45327;BME280;31062;49.678;24.560;2022-09-09T12:48:07;98187.66;;;16.73;82.76
45327;BME280;31062;49.678;24.560;2022-09-09T12:50:53;98143.81;;;16.39;82.68
45327;BME280;31062;49.678;24.560;2022-09-09T12:53:41;98218.66;;;16.78;82.67
45327;BME280;31062;49.678;24.560;2022-09-09T12:56:29;98200.94;;;16.87;82.90
45327;BME280;31062;49.678;24.560;2022-09-09T12:59:24;98195.44;;;16.89;83.19
45327;BME280;31062;49.678;24.560;2022-09-09T13:05:16;98198.44;;;16.93;82.36
45327;BME280;31062;49.678;24.560;2022-09-09T13:08:08;97998.47;;;15.61;82.22
45327;BME280;31062;49.678;24.560;2022-09-09T13:11:04;98130.78;;;16.57;82.13
45327;BME280;31062;49.678;24.560;2022-09-09T13:13:55;98159.88;;;16.78;81.91
45327;BME280;31062;49.678;24.560;2022-09-09T13:16:41;98173.56;;;16.99;82.08
45327;BME280;31062;49.678;24.560;2022-09-09T13:19:31;98201.88;;;17.05;81.83
45327;BME280;31062;49.678;24.560;2022-09-09T13:22:37;98208.31;;;17.07;81.77
45327;BME280;31062;49.678;24.560;2022-09-09T13:25:26;98194.72;;;17.02;82.20
45327;BME280;31062;49.678;24.560;2022-09-09T13:28:22;98194.72;;;17.02;82.58
45327;BME280;31062;49.678;24.560;2022-09-09T13:31:24;98069.81;;;16.15;82.30
45327;BME280;31062;49.678;24.560;2022-09-09T13:34:29;98185.31;;;17.09;82.36
45327;BME280;31062;49.678;24.560;2022-09-09T13:37:37;98180.94;;;17.06;82.71
45327;BME280;31062;49.678;24.560;2022-09-09T13:40:23;98054.59;;;16.18;82.72
45327;BME280;31062;49.678;24.560;2022-09-09T13:43:18;98134.38;;;16.71;82.75
45327;BME280;31062;49.678;24.560;2022-09-09T13:52:14;98053.75;;;16.15;83.17
45327;BME280;31062;49.678;24.560;2022-09-09T13:55:02;98168.06;;;16.87;83.10
45327;BME280;31062;49.678;24.560;2022-09-09T14:00:37;98025.97;;;15.92;83.65
45327;BME280;31062;49.678;24.560;2022-09-09T14:03:23;98030.88;;;16.05;83.51
45327;BME280;31062;49.678;24.560;2022-09-09T14:06:09;98188.09;;;17.09;83.29
45327;BME280;31062;49.678;24.560;2022-09-09T14:08:56;98198.25;;;17.16;83.61
45327;BME280;31062;49.678;24.560;2022-09-09T14:11:41;98194.31;;;17.21;83.47
45327;BME280;31062;49.678;24.560;2022-09-09T14:14:28;98196.59;;;17.25;83.13
45327;BME280;31062;49.678;24.560;2022-09-09T14:17:13;98193.06;;;17.24;82.47
45327;BME280;31062;49.678;24.560;2022-09-09T14:20:00;98190.38;;;17.26;82.54
45327;BME280;31062;49.678;24.560;2022-09-09T14:22:45;98203.44;;;17.35;82.50
45327;BME280;31062;49.678;24.560;2022-09-09T14:25:31;98070.78;;;16.47;82.30
45327;BME280;31062;49.678;24.560;2022-09-09T14:28:18;98192.31;;;17.37;81.95
45327;BME280;31062;49.678;24.560;2022-09-09T14:31:23;98191.19;;;17.42;82.05
45327;BME280;31062;49.678;24.560;2022-09-09T14:34:10;98190.63;;;17.46;81.92
45327;BME280;31062;49.678;24.560;2022-09-09T14:36:56;98179.78;;;17.38;82.27
45327;BME280;31062;49.678;24.560;2022-09-09T14:39:43;98181.44;;;17.43;82.31
45327;BME280;31062;49.678;24.560;2022-09-09T14:42:29;98181.72;;;17.49;82.39
45327;BME280;31062;49.678;24.560;2022-09-09T14:45:16;98170.31;;;17.45;82.68
45327;BME280;31062;49.678;24.560;2022-09-09T14:48:03;98151.94;;;17.42;82.55
45327;BME280;31062;49.678;24.560;2022-09-09T14:50:49;98162.63;;;17.46;82.32
45327;BME280;31062;49.678;24.560;2022-09-09T14:53:34;98130.44;;;17.04;82.36
45327;BME280;31062;49.678;24.560;2022-09-09T14:56:22;98019.91;;;16.50;82.40
45327;BME280;31062;49.678;24.560;2022-09-09T14:59:08;98034.44;;;16.60;82.35
45327;BME280;31062;49.678;24.560;2022-09-09T15:01:53;98136.00;;;17.31;82.52
45327;BME280;31062;49.678;24.560;2022-09-09T15:04:39;98170.81;;;17.55;82.52
45327;BME280;31062;49.678;24.560;2022-09-09T15:07:25;98027.41;;;16.59;82.19
45327;BME280;31062;49.678;24.560;2022-09-09T15:10:12;98170.81;;;17.55;82.39
45327;BME280;31062;49.678;24.560;2022-09-09T15:12:57;98049.13;;;16.74;82.25
45327;BME280;31062;49.678;24.560;2022-09-09T15:15:43;98020.97;;;16.43;82.82
45327;BME280;31062;49.678;24.560;2022-09-09T15:18:28;98174.03;;;17.50;83.03
45327;BME280;31062;49.678;24.560;2022-09-09T15:21:16;98074.31;;;16.74;83.31
45327;BME280;31062;49.678;24.560;2022-09-09T15:24:03;98218.88;;;17.50;83.21
45327;BME280;31062;49.678;24.560;2022-09-09T15:26:49;98104.41;;;16.88;83.58
45327;BME280;31062;49.678;24.560;2022-09-09T15:29:35;98195.44;;;17.43;83.85
45327;BME280;31062;49.678;24.560;2022-09-09T15:32:21;98140.69;;;17.13;83.79
45327;BME280;31062;49.678;24.560;2022-09-09T15:35:07;98172.00;;;17.37;83.86
45327;BME280;31062;49.678;24.560;2022-09-09T15:38:03;98140.06;;;17.14;83.95
45327;BME280;31062;49.678;24.560;2022-09-09T15:40:56;98173.81;;;17.46;83.84
45327;BME280;31062;49.678;24.560;2022-09-09T15:43:44;98182.66;;;17.54;83.70
45327;BME280;31062;49.678;24.560;2022-09-09T15:46:36;98180.69;;;17.57;83.63
45327;BME280;31062;49.678;24.560;2022-09-09T15:49:24;98172.28;;;17.57;83.71
45327;BME280;31062;49.678;24.560;2022-09-09T15:52:12;98157.00;;;17.46;83.39
45327;BME280;31062;49.678;24.560;2022-09-09T15:54:57;98115.38;;;17.11;83.38
45327;BME280;31062;49.678;24.560;2022-09-09T15:57:43;98191.97;;;17.59;83.82
45327;BME280;31062;49.678;24.560;2022-09-09T16:00:29;98144.50;;;17.33;84.20
45327;BME280;31062;49.678;24.560;2022-09-09T16:03:15;97693.22;;;14.14;83.79
45327;BME280;31062;49.678;24.560;2022-09-09T16:06:01;98173.00;;;17.57;84.09
45327;BME280;31062;49.678;24.560;2022-09-09T16:08:51;98021.34;;;16.51;83.87
45327;BME280;31062;49.678;24.560;2022-09-09T16:11:38;98182.44;;;17.64;83.99
45327;BME280;31062;49.678;24.560;2022-09-09T16:14:25;98170.81;;;17.55;83.75
45327;BME280;31062;49.678;24.560;2022-09-09T16:17:11;98163.75;;;17.54;83.78
45327;BME280;31062;49.678;24.560;2022-09-09T16:19:57;98171.00;;;17.60;83.70
45327;BME280;31062;49.678;24.560;2022-09-09T16:22:43;98167.06;;;17.65;83.86
45327;BME280;31062;49.678;24.560;2022-09-09T16:25:28;98132.22;;;17.40;83.56
45327;BME280;31062;49.678;24.560;2022-09-09T16:28:14;98016.94;;;16.60;83.19
45327;BME280;31062;49.678;24.560;2022-09-09T16:31:04;98141.19;;;17.23;83.36
45327;BME280;31062;49.678;24.560;2022-09-09T16:33:51;98170.09;;;17.69;83.11